Time,TemperatureF,DewpointF,PressureIn,WindDirection,WindDirectionDegrees,WindSpeedMPH,WindSpeedGustMPH,Humidity,HourlyPrecipIn,Conditions,Clouds,dailyrainin,SoftwareType,DateUTC
2013-10-10 00:00:00,53.8,47.1,30.17,ESE,113,1.0,3.0,78,0.00,,---,0.00,VWS V14.01,2013-10-10 04:00:00,
2013-10-10 00:30:00,53.6,47.3,30.16,ESE,111,1.0,4.0,79,0.00,,---,0.00,VWS V14.01,2013-10-10 04:30:00,
2013-10-10 01:00:00,52.1,46.8,30.16,ESE,115,0.0,2.0,82,0.00,,---,0.00,VWS V14.01,2013-10-10 05:00:00,
2013-10-10 01:30:00,49.7,46.3,30.16,ESE,114,0.0,1.0,88,0.00,,---,0.00,VWS V14.01,2013-10-10 05:30:00,
2013-10-10 02:00:00,49.5,46.4,30.16,ESE,114,0.0,1.0,89,0.00,,---,0.00,VWS V14.01,2013-10-10 06:00:00,
2013-10-10 02:30:00,48.2,45.7,30.17,ESE,115,0.0,1.0,91,0.00,,---,0.00,VWS V14.01,2013-10-10 06:30:00,
2013-10-10 03:00:00,47.7,45.8,30.17,ESE,114,0.0,1.0,93,0.00,,---,0.00,VWS V14.01,2013-10-10 07:00:00,
2013-10-10 03:30:00,47.2,45.6,30.17,ESE,115,0.0,1.0,94,0.00,,---,0.00,VWS V14.01,2013-10-10 07:30:00,
2013-10-10 04:00:00,46.7,45.1,30.17,ESE,115,0.0,1.0,94,0.00,,---,0.00,VWS V14.01,2013-10-10 08:00:00,
2013-10-10 04:30:00,46.7,45.3,30.16,ESE,114,0.0,1.0,95,0.00,,---,0.00,VWS V14.01,2013-10-10 08:30:00,
2013-10-10 05:00:00,46.0,44.7,30.17,ESE,114,0.0,0.0,95,0.00,,---,0.00,VWS V14.01,2013-10-10 09:00:00,
2013-10-10 05:30:00,45.3,44.0,30.17,ESE,114,0.0,0.0,95,0.00,,---,0.00,VWS V14.01,2013-10-10 09:30:00,
2013-10-10 06:00:00,45.3,44.2,30.17,ESE,115,0.0,0.0,96,0.00,,---,0.00,VWS V14.01,2013-10-10 10:00:00,
2013-10-10 06:30:00,45.2,44.1,30.17,ESE,114,0.0,0.0,96,0.00,,---,0.00,VWS V14.01,2013-10-10 10:30:00,
2013-10-10 07:00:00,44.8,43.7,30.17,ESE,114,0.0,0.0,96,0.00,,---,0.00,VWS V14.01,2013-10-10 11:00:00,
2013-10-10 07:30:00,44.7,43.6,30.18,ESE,114,0.0,0.0,96,0.00,,---,0.00,VWS V14.01,2013-10-10 11:30:00,
2013-10-10 08:00:00,44.5,43.7,30.17,ESE,114,0.0,0.0,97,0.00,,---,0.00,VWS V14.01,2013-10-10 12:00:00,
2013-10-10 08:30:00,44.9,44.1,30.17,ESE,114,0.0,0.0,97,0.00,,---,0.00,VWS V14.01,2013-10-10 12:30:00,
2013-10-10 09:00:00,46.3,45.5,30.18,ESE,114,0.0,0.0,97,0.00,,---,0.00,VWS V14.01,2013-10-10 13:00:00,
2013-10-10 09:30:00,48.4,47.9,30.18,ESE,114,0.0,0.0,98,0.00,,---,0.00,VWS V14.01,2013-10-10 13:30:00,
2013-10-10 10:00:00,50.5,50.0,30.18,ESE,114,0.0,0.0,98,0.00,,---,0.00,VWS V14.01,2013-10-10 14:00:00,
2013-10-10 10:30:00,54.4,53.6,30.19,WSW,252,1.0,2.0,97,0.00,,---,0.00,VWS V14.01,2013-10-10 14:30:00,
2013-10-10 11:00:00,59.1,52.9,30.19,ESE,115,0.0,3.0,80,0.00,,---,0.00,VWS V14.01,2013-10-10 15:00:00,
2013-10-10 11:30:00,61.8,53.8,30.19,West,262,0.0,3.0,75,0.00,,---,0.00,VWS V14.01,2013-10-10 15:30:00,
2013-10-10 12:00:00,64.2,54.2,30.18,ESE,122,1.0,2.0,70,0.00,,---,0.00,VWS V14.01,2013-10-10 16:00:00,
2013-10-10 12:30:00,66.2,54.1,30.17,West,272,1.0,4.0,65,0.00,,---,0.00,VWS V14.01,2013-10-10 16:30:00,
2013-10-10 13:00:00,67.9,54.4,30.17,NNW,330,1.0,4.0,62,0.00,,---,0.00,VWS V14.01,2013-10-10 17:00:00,
2013-10-10 13:30:00,69.1,51.8,30.16,North,360,1.0,4.0,54,0.00,,---,0.00,VWS V14.01,2013-10-10 17:30:00,
2013-10-10 14:00:00,71.6,51.5,30.15,East,85,2.0,4.0,49,0.00,,---,0.00,VWS V14.01,2013-10-10 18:00:00,
2013-10-10 14:30:00,72.8,51.4,30.14,East,101,0.0,4.0,47,0.00,,---,0.00,VWS V14.01,2013-10-10 18:30:00,
2013-10-10 15:00:00,72.8,52.5,30.12,North,356,0.0,4.0,49,0.00,,---,0.00,VWS V14.01,2013-10-10 19:00:00,
2013-10-10 15:30:00,73.8,51.2,30.11,WNW,289,0.0,4.0,45,0.00,,---,0.00,VWS V14.01,2013-10-10 19:30:00,
2013-10-10 16:00:00,75.6,51.5,30.11,WNW,284,0.0,3.0,43,0.00,,---,0.00,VWS V14.01,2013-10-10 20:00:00,
2013-10-10 16:30:00,75.0,50.4,30.09,East,79,2.0,4.0,42,0.00,,---,0.00,VWS V14.01,2013-10-10 20:30:00,
2013-10-10 17:00:00,76.5,51.1,30.08,West,277,2.0,4.0,41,0.00,,---,0.00,VWS V14.01,2013-10-10 21:00:00,
2013-10-10 17:30:00,77.0,51.5,30.08,East,91,0.0,2.0,41,0.00,,---,0.00,VWS V14.01,2013-10-10 21:30:00,
2013-10-10 18:00:00,74.3,50.4,30.08,East,96,1.0,2.0,43,0.00,,---,0.00,VWS V14.01,2013-10-10 22:00:00,
2013-10-10 18:30:00,71.4,53.4,30.08,ESE,118,1.0,2.0,53,0.00,,---,0.00,VWS V14.01,2013-10-10 22:30:00,
2013-10-10 19:00:00,65.1,53.1,30.08,ESE,112,1.0,2.0,65,0.00,,---,0.00,VWS V14.01,2013-10-10 23:00:00,
2013-10-10 19:30:00,61.4,52.3,30.08,ESE,116,1.0,2.0,72,0.00,,---,0.00,VWS V14.01,2013-10-10 23:30:00,
2013-10-10 20:00:00,59.9,51.2,30.08,ESE,115,1.0,2.0,73,0.00,,---,0.00,VWS V14.01,2013-10-11 00:00:00,
2013-10-10 20:30:00,58.2,51.0,30.08,ESE,120,1.0,2.0,77,0.00,,---,0.00,VWS V14.01,2013-10-11 00:30:00,
2013-10-10 21:00:00,57.0,50.6,30.09,ESE,115,1.0,2.0,79,0.00,,---,0.00,VWS V14.01,2013-10-11 01:00:00,
2013-10-10 21:30:00,55.5,49.8,30.09,ESE,116,0.0,1.0,81,0.00,,---,0.00,VWS V14.01,2013-10-11 01:30:00,
2013-10-10 22:00:00,53.7,49.3,30.09,ESE,115,0.0,1.0,85,0.00,,---,0.00,VWS V14.01,2013-10-11 02:00:00,
2013-10-10 22:30:00,52.6,49.2,30.09,ESE,116,0.0,1.0,88,0.00,,---,0.00,VWS V14.01,2013-10-11 02:30:00,
2013-10-10 23:00:00,51.7,48.6,30.08,ESE,115,0.0,1.0,89,0.00,,---,0.00,VWS V14.01,2013-10-11 03:00:00,
2013-10-10 23:30:00,51.0,48.2,30.08,ESE,115,0.0,0.0,90,0.00,,---,0.00,VWS V14.01,2013-10-11 03:30:00,